sensor_id;sensor_type;location;lat;lon;timestamp;P1;durP1;ratioP1;P2;durP2;ratioP2
40793;SDS011;26502;51.886;15.604;2023-05-18T00:04:50;10.00;;;2.80;;
40793;SDS011;26502;51.886;15.604;2023-05-18T00:09:56;8.20;;;3.10;;
40793;SDS011;26502;51.886;15.604;2023-05-18T00:15:02;9.60;;;2.60;;
40793;SDS011;26502;51.886;15.604;2023-05-18T00:20:09;10.50;;;2.80;;
40793;SDS011;26502;51.886;15.604;2023-05-18T00:25:17;11.80;;;3.30;;
40793;SDS011;26502;51.886;15.604;2023-05-18T00:30:23;9.40;;;2.80;;
40793;SDS011;26502;51.886;15.604;2023-05-18T00:35:29;8.50;;;2.80;;
40793;SDS011;26502;51.886;15.604;2023-05-18T00:40:35;6.50;;;2.50;;
40793;SDS011;26502;51.886;15.604;2023-05-18T00:45:42;9.50;;;3.00;;
40793;SDS011;26502;51.886;15.604;2023-05-18T00:50:47;7.00;;;2.80;;
40793;SDS011;26502;51.886;15.604;2023-05-18T00:55:54;7.10;;;2.60;;
40793;SDS011;26502;51.886;15.604;2023-05-18T01:01:01;8.20;;;3.30;;
40793;SDS011;26502;51.886;15.604;2023-05-18T01:06:08;7.90;;;2.80;;
40793;SDS011;26502;51.886;15.604;2023-05-18T01:16:42;9.40;;;3.10;;
40793;SDS011;26502;51.886;15.604;2023-05-18T01:21:56;7.50;;;2.40;;
40793;SDS011;26502;51.886;15.604;2023-05-18T01:27:11;5.40;;;2.30;;
40793;SDS011;26502;51.886;15.604;2023-05-18T01:32:21;4.70;;;2.50;;
40793;SDS011;26502;51.886;15.604;2023-05-18T01:37:27;11.00;;;3.20;;
40793;SDS011;26502;51.886;15.604;2023-05-18T01:42:33;8.20;;;3.10;;
40793;SDS011;26502;51.886;15.604;2023-05-18T01:47:46;8.50;;;2.70;;
40793;SDS011;26502;51.886;15.604;2023-05-18T01:52:59;5.90;;;2.70;;
40793;SDS011;26502;51.886;15.604;2023-05-18T01:58:11;9.30;;;2.80;;
40793;SDS011;26502;51.886;15.604;2023-05-18T02:03:18;5.90;;;2.70;;
40793;SDS011;26502;51.886;15.604;2023-05-18T02:08:24;7.30;;;2.70;;
40793;SDS011;26502;51.886;15.604;2023-05-18T02:13:31;5.60;;;2.70;;
40793;SDS011;26502;51.886;15.604;2023-05-18T02:18:37;5.30;;;2.50;;
40793;SDS011;26502;51.886;15.604;2023-05-18T02:23:44;7.20;;;2.70;;
40793;SDS011;26502;51.886;15.604;2023-05-18T02:28:50;5.90;;;2.50;;
40793;SDS011;26502;51.886;15.604;2023-05-18T02:33:57;9.00;;;3.00;;
40793;SDS011;26502;51.886;15.604;2023-05-18T02:39:03;7.50;;;2.30;;
40793;SDS011;26502;51.886;15.604;2023-05-18T02:44:10;6.60;;;2.40;;
40793;SDS011;26502;51.886;15.604;2023-05-18T02:49:16;7.80;;;2.50;;
40793;SDS011;26502;51.886;15.604;2023-05-18T02:54:23;7.80;;;2.50;;
40793;SDS011;26502;51.886;15.604;2023-05-18T02:59:30;6.80;;;2.40;;
40793;SDS011;26502;51.886;15.604;2023-05-18T03:04:36;4.40;;;2.40;;
40793;SDS011;26502;51.886;15.604;2023-05-18T03:09:42;7.70;;;3.00;;
40793;SDS011;26502;51.886;15.604;2023-05-18T03:14:48;5.50;;;2.10;;
40793;SDS011;26502;51.886;15.604;2023-05-18T03:19:54;7.90;;;2.60;;
40793;SDS011;26502;51.886;15.604;2023-05-18T03:25:00;7.00;;;2.40;;
40793;SDS011;26502;51.886;15.604;2023-05-18T03:30:07;6.20;;;2.30;;
40793;SDS011;26502;51.886;15.604;2023-05-18T03:35:15;6.40;;;2.20;;
40793;SDS011;26502;51.886;15.604;2023-05-18T03:40:21;9.30;;;2.80;;
40793;SDS011;26502;51.886;15.604;2023-05-18T03:45:28;6.60;;;2.60;;
40793;SDS011;26502;51.886;15.604;2023-05-18T03:50:34;5.20;;;2.20;;
40793;SDS011;26502;51.886;15.604;2023-05-18T03:55:41;11.40;;;3.00;;
40793;SDS011;26502;51.886;15.604;2023-05-18T04:00:46;6.10;;;2.60;;
40793;SDS011;26502;51.886;15.604;2023-05-18T04:05:52;5.90;;;2.10;;
40793;SDS011;26502;51.886;15.604;2023-05-18T04:10:58;6.20;;;2.20;;
40793;SDS011;26502;51.886;15.604;2023-05-18T04:16:05;4.60;;;2.50;;
40793;SDS011;26502;51.886;15.604;2023-05-18T04:21:14;5.30;;;2.30;;
40793;SDS011;26502;51.886;15.604;2023-05-18T04:26:21;5.50;;;2.40;;
40793;SDS011;26502;51.886;15.604;2023-05-18T04:31:27;6.20;;;2.30;;
40793;SDS011;26502;51.886;15.604;2023-05-18T04:36:34;6.40;;;2.30;;
40793;SDS011;26502;51.886;15.604;2023-05-18T04:41:42;6.10;;;2.40;;
40793;SDS011;26502;51.886;15.604;2023-05-18T04:46:48;8.40;;;2.70;;
40793;SDS011;26502;51.886;15.604;2023-05-18T04:51:55;5.90;;;2.40;;
40793;SDS011;26502;51.886;15.604;2023-05-18T04:57:03;5.00;;;2.60;;
40793;SDS011;26502;51.886;15.604;2023-05-18T05:02:09;4.50;;;2.00;;
40793;SDS011;26502;51.886;15.604;2023-05-18T05:07:16;8.00;;;2.20;;
40793;SDS011;26502;51.886;15.604;2023-05-18T05:12:23;7.00;;;2.40;;
40793;SDS011;26502;51.886;15.604;2023-05-18T05:17:29;9.20;;;2.50;;
40793;SDS011;26502;51.886;15.604;2023-05-18T05:22:35;8.30;;;2.60;;
40793;SDS011;26502;51.886;15.604;2023-05-18T05:27:45;11.20;;;2.40;;
40793;SDS011;26502;51.886;15.604;2023-05-18T05:32:54;5.50;;;2.50;;
40793;SDS011;26502;51.886;15.604;2023-05-18T05:38:01;9.80;;;2.20;;
40793;SDS011;26502;51.886;15.604;2023-05-18T05:43:09;8.80;;;3.00;;
40793;SDS011;26502;51.886;15.604;2023-05-18T05:48:15;6.30;;;1.90;;
40793;SDS011;26502;51.886;15.604;2023-05-18T05:53:22;5.50;;;2.00;;
40793;SDS011;26502;51.886;15.604;2023-05-18T05:58:29;5.50;;;2.30;;
40793;SDS011;26502;51.886;15.604;2023-05-18T06:03:36;4.00;;;1.70;;
40793;SDS011;26502;51.886;15.604;2023-05-18T06:08:43;9.90;;;2.20;;
40793;SDS011;26502;51.886;15.604;2023-05-18T06:13:49;12.40;;;2.20;;
40793;SDS011;26502;51.886;15.604;2023-05-18T06:18:56;7.40;;;1.80;;
40793;SDS011;26502;51.886;15.604;2023-05-18T06:24:03;7.30;;;1.60;;
40793;SDS011;26502;51.886;15.604;2023-05-18T06:29:33;8.10;;;1.70;;
40793;SDS011;26502;51.886;15.604;2023-05-18T06:34:38;8.00;;;1.40;;
40793;SDS011;26502;51.886;15.604;2023-05-18T06:39:47;5.90;;;1.90;;
40793;SDS011;26502;51.886;15.604;2023-05-18T06:44:53;5.50;;;1.40;;
40793;SDS011;26502;51.886;15.604;2023-05-18T06:50:19;12.60;;;1.90;;
40793;SDS011;26502;51.886;15.604;2023-05-18T06:55:25;6.70;;;1.50;;
40793;SDS011;26502;51.886;15.604;2023-05-18T07:00:32;4.00;;;1.70;;
40793;SDS011;26502;51.886;15.604;2023-05-18T07:05:39;6.40;;;1.90;;
40793;SDS011;26502;51.886;15.604;2023-05-18T07:10:45;8.00;;;2.10;;
40793;SDS011;26502;51.886;15.604;2023-05-18T07:15:51;7.10;;;1.40;;
40793;SDS011;26502;51.886;15.604;2023-05-18T07:20:57;4.70;;;1.60;;
40793;SDS011;26502;51.886;15.604;2023-05-18T07:26:03;4.50;;;1.20;;
40793;SDS011;26502;51.886;15.604;2023-05-18T07:31:13;4.80;;;1.70;;
40793;SDS011;26502;51.886;15.604;2023-05-18T07:36:19;10.10;;;1.70;;
40793;SDS011;26502;51.886;15.604;2023-05-18T07:41:26;6.40;;;1.10;;
40793;SDS011;26502;51.886;15.604;2023-05-18T07:46:33;5.90;;;1.60;;
40793;SDS011;26502;51.886;15.604;2023-05-18T07:51:39;4.00;;;1.40;;
40793;SDS011;26502;51.886;15.604;2023-05-18T07:56:45;8.10;;;1.70;;
40793;SDS011;26502;51.886;15.604;2023-05-18T08:01:51;5.20;;;2.10;;
40793;SDS011;26502;51.886;15.604;2023-05-18T08:06:57;4.00;;;1.40;;
40793;SDS011;26502;51.886;15.604;2023-05-18T08:12:04;6.10;;;1.60;;
40793;SDS011;26502;51.886;15.604;2023-05-18T08:17:11;4.40;;;1.10;;
40793;SDS011;26502;51.886;15.604;2023-05-18T08:22:17;6.50;;;1.60;;
40793;SDS011;26502;51.886;15.604;2023-05-18T08:27:23;8.60;;;1.30;;
40793;SDS011;26502;51.886;15.604;2023-05-18T08:32:29;5.40;;;1.40;;
40793;SDS011;26502;51.886;15.604;2023-05-18T08:37:34;4.60;;;1.30;;
40793;SDS011;26502;51.886;15.604;2023-05-18T08:42:43;4.70;;;1.40;;
40793;SDS011;26502;51.886;15.604;2023-05-18T08:47:54;6.60;;;1.30;;
40793;SDS011;26502;51.886;15.604;2023-05-18T08:53:04;5.30;;;1.40;;
40793;SDS011;26502;51.886;15.604;2023-05-18T08:58:10;3.40;;;1.30;;
40793;SDS011;26502;51.886;15.604;2023-05-18T09:03:20;4.60;;;1.20;;
40793;SDS011;26502;51.886;15.604;2023-05-18T09:08:27;5.10;;;1.30;;
40793;SDS011;26502;51.886;15.604;2023-05-18T09:13:35;1.60;;;0.90;;
40793;SDS011;26502;51.886;15.604;2023-05-18T09:18:41;8.40;;;1.50;;
40793;SDS011;26502;51.886;15.604;2023-05-18T09:23:47;2.90;;;1.10;;
40793;SDS011;26502;51.886;15.604;2023-05-18T09:28:53;3.80;;;1.40;;
40793;SDS011;26502;51.886;15.604;2023-05-18T09:34:01;1.50;;;0.70;;
40793;SDS011;26502;51.886;15.604;2023-05-18T09:39:09;3.60;;;1.00;;
40793;SDS011;26502;51.886;15.604;2023-05-18T09:44:15;4.90;;;1.60;;
40793;SDS011;26502;51.886;15.604;2023-05-18T09:49:21;4.00;;;1.40;;
40793;SDS011;26502;51.886;15.604;2023-05-18T09:54:27;3.90;;;1.30;;
40793;SDS011;26502;51.886;15.604;2023-05-18T09:59:34;3.40;;;1.20;;
40793;SDS011;26502;51.886;15.604;2023-05-18T10:04:41;6.10;;;1.10;;
40793;SDS011;26502;51.886;15.604;2023-05-18T10:09:47;7.50;;;1.60;;
40793;SDS011;26502;51.886;15.604;2023-05-18T10:15:07;4.00;;;1.40;;
40793;SDS011;26502;51.886;15.604;2023-05-18T10:20:17;3.10;;;1.30;;
40793;SDS011;26502;51.886;15.604;2023-05-18T10:25:26;7.60;;;1.40;;
40793;SDS011;26502;51.886;15.604;2023-05-18T10:30:32;4.30;;;1.10;;
40793;SDS011;26502;51.886;15.604;2023-05-18T10:35:39;5.90;;;1.40;;
40793;SDS011;26502;51.886;15.604;2023-05-18T10:40:49;8.80;;;1.20;;
40793;SDS011;26502;51.886;15.604;2023-05-18T10:45:57;3.90;;;1.30;;
40793;SDS011;26502;51.886;15.604;2023-05-18T10:51:04;4.80;;;1.50;;
40793;SDS011;26502;51.886;15.604;2023-05-18T10:56:11;2.60;;;1.10;;
40793;SDS011;26502;51.886;15.604;2023-05-18T11:01:19;3.40;;;1.60;;
40793;SDS011;26502;51.886;15.604;2023-05-18T11:06:25;1.70;;;0.90;;
40793;SDS011;26502;51.886;15.604;2023-05-18T11:11:31;2.70;;;1.10;;
40793;SDS011;26502;51.886;15.604;2023-05-18T11:22:24;3.90;;;1.30;;
40793;SDS011;26502;51.886;15.604;2023-05-18T11:27:45;3.10;;;1.30;;
40793;SDS011;26502;51.886;15.604;2023-05-18T11:32:51;7.50;;;1.30;;
40793;SDS011;26502;51.886;15.604;2023-05-18T11:38:10;4.20;;;1.10;;
40793;SDS011;26502;51.886;15.604;2023-05-18T11:43:21;3.10;;;1.30;;
40793;SDS011;26502;51.886;15.604;2023-05-18T11:48:29;3.30;;;1.10;;
40793;SDS011;26502;51.886;15.604;2023-05-18T11:53:36;5.00;;;1.00;;
40793;SDS011;26502;51.886;15.604;2023-05-18T11:58:43;1.20;;;1.10;;
40793;SDS011;26502;51.886;15.604;2023-05-18T12:03:51;2.50;;;1.00;;
40793;SDS011;26502;51.886;15.604;2023-05-18T12:08:57;2.30;;;0.90;;
40793;SDS011;26502;51.886;15.604;2023-05-18T12:14:04;3.30;;;1.20;;
40793;SDS011;26502;51.886;15.604;2023-05-18T12:19:11;2.90;;;1.00;;
40793;SDS011;26502;51.886;15.604;2023-05-18T12:24:16;2.20;;;0.90;;
40793;SDS011;26502;51.886;15.604;2023-05-18T12:29:23;1.60;;;0.90;;
40793;SDS011;26502;51.886;15.604;2023-05-18T12:34:30;4.60;;;1.50;;
40793;SDS011;26502;51.886;15.604;2023-05-18T12:39:36;3.80;;;1.20;;
40793;SDS011;26502;51.886;15.604;2023-05-18T12:44:43;6.30;;;1.30;;
40793;SDS011;26502;51.886;15.604;2023-05-18T12:49:50;4.20;;;1.40;;
40793;SDS011;26502;51.886;15.604;2023-05-18T12:54:56;2.50;;;1.00;;
40793;SDS011;26502;51.886;15.604;2023-05-18T13:00:04;5.60;;;1.40;;
40793;SDS011;26502;51.886;15.604;2023-05-18T13:05:13;6.60;;;1.40;;
40793;SDS011;26502;51.886;15.604;2023-05-18T13:12:13;10.40;;;1.60;;
40793;SDS011;26502;51.886;15.604;2023-05-18T13:17:21;4.00;;;1.50;;
40793;SDS011;26502;51.886;15.604;2023-05-18T13:27:32;4.60;;;1.40;;
40793;SDS011;26502;51.886;15.604;2023-05-18T13:32:38;4.10;;;1.20;;
40793;SDS011;26502;51.886;15.604;2023-05-18T13:37:45;1.90;;;1.20;;
40793;SDS011;26502;51.886;15.604;2023-05-18T13:42:52;4.40;;;1.10;;
40793;SDS011;26502;51.886;15.604;2023-05-18T13:47:58;2.70;;;1.20;;
40793;SDS011;26502;51.886;15.604;2023-05-18T13:53:05;2.50;;;1.30;;
40793;SDS011;26502;51.886;15.604;2023-05-18T13:58:12;5.20;;;1.30;;
40793;SDS011;26502;51.886;15.604;2023-05-18T14:03:18;3.60;;;1.40;;
40793;SDS011;26502;51.886;15.604;2023-05-18T14:08:25;6.10;;;1.20;;
40793;SDS011;26502;51.886;15.604;2023-05-18T14:13:32;6.00;;;1.40;;
40793;SDS011;26502;51.886;15.604;2023-05-18T14:18:38;1.70;;;1.20;;
40793;SDS011;26502;51.886;15.604;2023-05-18T14:23:44;5.90;;;1.30;;
40793;SDS011;26502;51.886;15.604;2023-05-18T14:28:50;3.00;;;1.30;;
40793;SDS011;26502;51.886;15.604;2023-05-18T14:33:57;3.00;;;1.20;;
40793;SDS011;26502;51.886;15.604;2023-05-18T14:39:03;6.10;;;1.60;;
40793;SDS011;26502;51.886;15.604;2023-05-18T14:44:09;2.00;;;1.10;;
40793;SDS011;26502;51.886;15.604;2023-05-18T14:49:15;1.70;;;1.10;;
40793;SDS011;26502;51.886;15.604;2023-05-18T14:54:21;2.20;;;1.20;;
40793;SDS011;26502;51.886;15.604;2023-05-18T14:59:27;4.20;;;1.00;;
40793;SDS011;26502;51.886;15.604;2023-05-18T15:04:33;2.70;;;1.00;;
40793;SDS011;26502;51.886;15.604;2023-05-18T15:09:39;4.30;;;1.00;;
40793;SDS011;26502;51.886;15.604;2023-05-18T15:14:45;3.30;;;1.20;;
40793;SDS011;26502;51.886;15.604;2023-05-18T15:19:50;4.00;;;1.60;;
40793;SDS011;26502;51.886;15.604;2023-05-18T15:24:56;1.80;;;0.90;;
40793;SDS011;26502;51.886;15.604;2023-05-18T15:30:04;5.00;;;1.00;;
40793;SDS011;26502;51.886;15.604;2023-05-18T15:35:13;2.30;;;0.90;;
40793;SDS011;26502;51.886;15.604;2023-05-18T15:40:19;3.60;;;1.20;;
40793;SDS011;26502;51.886;15.604;2023-05-18T15:45:25;3.30;;;1.30;;
40793;SDS011;26502;51.886;15.604;2023-05-18T15:50:31;5.50;;;1.40;;
40793;SDS011;26502;51.886;15.604;2023-05-18T15:55:37;2.00;;;0.90;;
40793;SDS011;26502;51.886;15.604;2023-05-18T16:00:43;3.30;;;1.30;;
40793;SDS011;26502;51.886;15.604;2023-05-18T16:05:49;3.10;;;0.90;;
40793;SDS011;26502;51.886;15.604;2023-05-18T16:10:55;1.40;;;1.10;;
40793;SDS011;26502;51.886;15.604;2023-05-18T16:16:04;1.40;;;0.90;;
40793;SDS011;26502;51.886;15.604;2023-05-18T16:21:12;1.50;;;1.00;;
40793;SDS011;26502;51.886;15.604;2023-05-18T16:26:17;2.90;;;1.00;;
40793;SDS011;26502;51.886;15.604;2023-05-18T16:31:23;1.30;;;0.70;;
40793;SDS011;26502;51.886;15.604;2023-05-18T16:36:30;1.70;;;1.00;;
40793;SDS011;26502;51.886;15.604;2023-05-18T16:41:36;2.20;;;1.00;;
40793;SDS011;26502;51.886;15.604;2023-05-18T16:46:42;3.00;;;1.30;;
40793;SDS011;26502;51.886;15.604;2023-05-18T16:51:48;3.80;;;1.10;;
40793;SDS011;26502;51.886;15.604;2023-05-18T16:56:54;1.70;;;1.00;;
40793;SDS011;26502;51.886;15.604;2023-05-18T17:02:01;1.60;;;1.10;;
40793;SDS011;26502;51.886;15.604;2023-05-18T17:07:07;2.30;;;0.90;;
40793;SDS011;26502;51.886;15.604;2023-05-18T17:12:14;2.00;;;1.10;;
40793;SDS011;26502;51.886;15.604;2023-05-18T17:17:20;5.90;;;1.50;;
40793;SDS011;26502;51.886;15.604;2023-05-18T17:22:26;2.20;;;1.00;;
40793;SDS011;26502;51.886;15.604;2023-05-18T17:27:32;2.00;;;1.00;;
40793;SDS011;26502;51.886;15.604;2023-05-18T17:32:38;2.50;;;1.00;;
40793;SDS011;26502;51.886;15.604;2023-05-18T17:37:46;7.00;;;2.00;;
40793;SDS011;26502;51.886;15.604;2023-05-18T17:42:52;3.40;;;1.10;;
40793;SDS011;26502;51.886;15.604;2023-05-18T17:47:58;15.30;;;2.20;;
40793;SDS011;26502;51.886;15.604;2023-05-18T17:53:04;3.40;;;1.40;;
40793;SDS011;26502;51.886;15.604;2023-05-18T17:58:10;2.90;;;1.00;;
40793;SDS011;26502;51.886;15.604;2023-05-18T18:03:16;2.30;;;1.00;;
40793;SDS011;26502;51.886;15.604;2023-05-18T18:08:23;2.70;;;1.30;;
40793;SDS011;26502;51.886;15.604;2023-05-18T18:13:30;3.00;;;1.30;;
40793;SDS011;26502;51.886;15.604;2023-05-18T18:18:35;5.90;;;1.40;;
40793;SDS011;26502;51.886;15.604;2023-05-18T18:23:41;1.50;;;0.90;;
40793;SDS011;26502;51.886;15.604;2023-05-18T18:28:47;1.40;;;1.10;;
40793;SDS011;26502;51.886;15.604;2023-05-18T18:33:54;1.10;;;1.00;;
40793;SDS011;26502;51.886;15.604;2023-05-18T18:39:00;1.60;;;1.40;;
40793;SDS011;26502;51.886;15.604;2023-05-18T18:44:07;1.90;;;1.30;;
40793;SDS011;26502;51.886;15.604;2023-05-18T18:49:13;2.30;;;1.60;;
40793;SDS011;26502;51.886;15.604;2023-05-18T18:54:19;2.90;;;1.70;;
40793;SDS011;26502;51.886;15.604;2023-05-18T18:59:26;3.70;;;1.80;;
40793;SDS011;26502;51.886;15.604;2023-05-18T19:04:32;2.30;;;1.90;;
40793;SDS011;26502;51.886;15.604;2023-05-18T19:09:38;2.40;;;1.40;;
40793;SDS011;26502;51.886;15.604;2023-05-18T19:14:45;1.90;;;1.70;;
40793;SDS011;26502;51.886;15.604;2023-05-18T19:19:51;1.30;;;1.20;;
40793;SDS011;26502;51.886;15.604;2023-05-18T19:24:57;1.70;;;1.20;;
40793;SDS011;26502;51.886;15.604;2023-05-18T19:30:03;5.40;;;2.30;;
40793;SDS011;26502;51.886;15.604;2023-05-18T19:35:11;3.30;;;1.60;;
40793;SDS011;26502;51.886;15.604;2023-05-18T19:40:17;3.40;;;1.50;;
40793;SDS011;26502;51.886;15.604;2023-05-18T19:45:24;1.60;;;1.50;;
40793;SDS011;26502;51.886;15.604;2023-05-18T19:50:30;4.50;;;1.60;;
40793;SDS011;26502;51.886;15.604;2023-05-18T19:55:36;1.90;;;1.70;;
40793;SDS011;26502;51.886;15.604;2023-05-18T20:00:42;2.90;;;1.50;;
40793;SDS011;26502;51.886;15.604;2023-05-18T20:05:48;1.70;;;1.40;;
40793;SDS011;26502;51.886;15.604;2023-05-18T20:10:55;3.70;;;2.10;;
40793;SDS011;26502;51.886;15.604;2023-05-18T20:16:02;6.80;;;2.30;;
40793;SDS011;26502;51.886;15.604;2023-05-18T20:21:10;3.10;;;1.80;;
40793;SDS011;26502;51.886;15.604;2023-05-18T20:26:16;2.00;;;1.50;;
40793;SDS011;26502;51.886;15.604;2023-05-18T20:31:24;2.60;;;1.70;;
40793;SDS011;26502;51.886;15.604;2023-05-18T20:36:31;3.10;;;2.20;;
40793;SDS011;26502;51.886;15.604;2023-05-18T20:41:37;4.00;;;2.70;;
40793;SDS011;26502;51.886;15.604;2023-05-18T20:46:43;3.40;;;2.50;;
40793;SDS011;26502;51.886;15.604;2023-05-18T20:51:50;3.50;;;2.70;;
40793;SDS011;26502;51.886;15.604;2023-05-18T20:56:56;5.40;;;3.00;;
40793;SDS011;26502;51.886;15.604;2023-05-18T21:02:02;6.00;;;3.30;;
40793;SDS011;26502;51.886;15.604;2023-05-18T21:07:08;6.00;;;3.10;;
40793;SDS011;26502;51.886;15.604;2023-05-18T21:12:14;5.40;;;2.80;;
40793;SDS011;26502;51.886;15.604;2023-05-18T21:17:20;4.60;;;3.20;;
40793;SDS011;26502;51.886;15.604;2023-05-18T21:22:26;7.40;;;4.00;;
40793;SDS011;26502;51.886;15.604;2023-05-18T21:27:32;9.30;;;4.70;;
40793;SDS011;26502;51.886;15.604;2023-05-18T21:32:38;5.10;;;3.30;;
40793;SDS011;26502;51.886;15.604;2023-05-18T21:37:45;6.60;;;2.90;;
40793;SDS011;26502;51.886;15.604;2023-05-18T21:42:52;3.90;;;3.10;;
40793;SDS011;26502;51.886;15.604;2023-05-18T21:47:59;6.90;;;3.60;;
40793;SDS011;26502;51.886;15.604;2023-05-18T21:53:05;8.80;;;3.20;;
40793;SDS011;26502;51.886;15.604;2023-05-18T21:58:11;5.10;;;3.20;;
40793;SDS011;26502;51.886;15.604;2023-05-18T22:03:17;7.80;;;3.80;;
40793;SDS011;26502;51.886;15.604;2023-05-18T22:08:25;6.40;;;3.50;;
40793;SDS011;26502;51.886;15.604;2023-05-18T22:13:31;6.70;;;3.70;;
40793;SDS011;26502;51.886;15.604;2023-05-18T22:18:37;6.20;;;3.30;;
40793;SDS011;26502;51.886;15.604;2023-05-18T22:23:43;6.80;;;3.90;;
40793;SDS011;26502;51.886;15.604;2023-05-18T22:28:49;5.00;;;3.40;;
40793;SDS011;26502;51.886;15.604;2023-05-18T22:33:55;8.40;;;4.10;;
40793;SDS011;26502;51.886;15.604;2023-05-18T22:39:01;8.30;;;4.50;;
40793;SDS011;26502;51.886;15.604;2023-05-18T22:44:07;5.10;;;3.90;;
40793;SDS011;26502;51.886;15.604;2023-05-18T22:49:13;10.40;;;3.70;;
40793;SDS011;26502;51.886;15.604;2023-05-18T22:54:19;5.00;;;3.90;;
40793;SDS011;26502;51.886;15.604;2023-05-18T22:59:25;8.30;;;4.00;;
40793;SDS011;26502;51.886;15.604;2023-05-18T23:04:32;5.40;;;3.00;;
40793;SDS011;26502;51.886;15.604;2023-05-18T23:09:38;7.50;;;3.20;;
40793;SDS011;26502;51.886;15.604;2023-05-18T23:14:44;6.90;;;3.60;;
40793;SDS011;26502;51.886;15.604;2023-05-18T23:19:53;3.90;;;3.00;;
40793;SDS011;26502;51.886;15.604;2023-05-18T23:25:00;4.10;;;3.20;;
40793;SDS011;26502;51.886;15.604;2023-05-18T23:30:10;6.20;;;3.40;;
40793;SDS011;26502;51.886;15.604;2023-05-18T23:35:17;4.30;;;3.10;;
40793;SDS011;26502;51.886;15.604;2023-05-18T23:40:24;5.60;;;3.30;;
40793;SDS011;26502;51.886;15.604;2023-05-18T23:45:31;4.10;;;3.30;;
40793;SDS011;26502;51.886;15.604;2023-05-18T23:50:38;4.60;;;3.40;;
40793;SDS011;26502;51.886;15.604;2023-05-18T23:55:46;4.90;;;3.10;;
